Time,TemperatureF,DewpointF,PressureIn,WindDirection,WindDirectionDegrees,WindSpeedMPH,WindSpeedGustMPH,Humidity,HourlyPrecipIn,Conditions,Clouds,dailyrainin,SoftwareType,DateUTC
2013-02-03 00:03:00,-0.1,-4.3,30.02,SW,217,0.0,0.0,82,0.00,,,0.00,Wunderground v.1.15,2013-02-03 06:03:00,
2013-02-03 00:09:00,0.2,-4.0,30.02,SW,217,0.0,0.0,82,0.00,,,0.00,Wunderground v.1.15,2013-02-03 06:09:00,
2013-02-03 00:15:00,0.3,-3.9,30.02,SW,217,0.0,0.0,82,0.00,,,0.00,Wunderground v.1.15,2013-02-03 06:15:00,
2013-02-03 00:20:00,0.4,-3.8,30.02,SW,217,0.0,0.0,82,0.00,,,0.00,Wunderground v.1.15,2013-02-03 06:20:00,
2013-02-03 00:26:00,0.7,-3.5,30.02,SW,220,0.0,0.0,82,0.00,,,0.00,Wunderground v.1.15,2013-02-03 06:26:00,
2013-02-03 00:32:00,1.0,-3.2,30.02,SW,220,0.0,0.0,82,0.00,,,0.00,Wunderground v.1.15,2013-02-03 06:32:00,
2013-02-03 00:37:00,1.1,-3.4,30.02,SW,236,0.0,0.0,81,0.00,,,0.00,Wunderground v.1.15,2013-02-03 06:37:00,
2013-02-03 00:43:00,1.1,-3.4,30.02,SW,236,0.0,0.0,81,0.00,,,0.00,Wunderground v.1.15,2013-02-03 06:43:00,
2013-02-03 00:48:00,1.3,-2.9,30.01,SW,236,0.0,0.0,82,0.00,,,0.00,Wunderground v.1.15,2013-02-03 06:48:00,
2013-02-03 00:54:00,1.5,-2.5,30.01,SW,236,0.0,0.0,83,0.00,,,0.00,Wunderground v.1.15,2013-02-03 06:54:00,
2013-02-03 01:00:00,1.8,-2.2,30.01,SW,236,0.0,0.0,83,0.00,,,0.00,Wunderground v.1.15,2013-02-03 07:00:00,
2013-02-03 01:06:00,2.3,-1.7,30.01,WSW,240,0.0,0.0,83,0.00,,,0.00,Wunderground v.1.15,2013-02-03 07:06:00,
2013-02-03 01:11:00,2.7,-1.3,30.01,WSW,258,0.0,0.0,83,0.00,,,0.00,Wunderground v.1.15,2013-02-03 07:11:00,
2013-02-03 01:17:00,2.7,-1.5,30.01,West,274,0.0,0.0,82,0.00,,,0.00,Wunderground v.1.15,2013-02-03 07:17:00,
2013-02-03 01:23:00,2.8,-1.2,30.01,WSW,250,0.0,0.0,83,0.00,,,0.00,Wunderground v.1.15,2013-02-03 07:23:00,
2013-02-03 01:29:00,3.2,-0.5,30.00,WSW,249,0.0,0.0,84,0.00,,,0.00,Wunderground v.1.15,2013-02-03 07:29:00,
2013-02-03 01:34:00,3.3,-0.7,30.00,WSW,237,0.0,0.0,83,0.00,,,0.00,Wunderground v.1.15,2013-02-03 07:34:00,
2013-02-03 01:40:00,3.1,-1.2,30.00,WSW,237,0.0,0.0,82,0.00,,,0.00,Wunderground v.1.15,2013-02-03 07:40:00,
2013-02-03 01:45:00,2.7,-1.8,29.99,WSW,237,0.0,0.0,81,0.00,,,0.00,Wunderground v.1.15,2013-02-03 07:45:00,
2013-02-03 01:51:00,2.4,-1.8,29.99,WSW,237,0.0,0.0,82,0.00,,,0.00,Wunderground v.1.15,2013-02-03 07:51:00,
2013-02-03 01:56:00,2.3,-1.9,29.99,SW,215,0.0,0.0,82,0.00,,,0.00,Wunderground v.1.15,2013-02-03 07:56:00,
2013-02-03 02:01:00,2.3,-1.7,29.99,SW,217,0.0,0.0,83,0.00,,,0.00,Wunderground v.1.15,2013-02-03 08:01:00,
2013-02-03 02:07:00,2.6,-1.1,29.99,SW,221,0.0,0.0,84,0.00,,,0.00,Wunderground v.1.15,2013-02-03 08:07:00,
2013-02-03 02:12:00,2.7,-1.0,29.98,SW,219,0.0,0.0,84,0.00,,,0.00,Wunderground v.1.15,2013-02-03 08:12:00,
2013-02-03 02:18:00,2.8,-0.9,29.98,SW,224,0.0,0.0,84,0.00,,,0.00,Wunderground v.1.15,2013-02-03 08:18:00,
2013-02-03 02:23:00,2.9,-0.8,29.98,WSW,243,0.0,0.0,84,0.00,,,0.00,Wunderground v.1.15,2013-02-03 08:23:00,
2013-02-03 02:29:00,3.1,-0.6,29.98,WSW,244,0.0,0.0,84,0.00,,,0.00,Wunderground v.1.15,2013-02-03 08:29:00,
2013-02-03 02:35:00,3.2,-0.5,29.98,WSW,242,0.0,0.0,84,0.00,,,0.00,Wunderground v.1.15,2013-02-03 08:35:00,
2013-02-03 02:40:00,3.4,-0.1,29.98,WSW,244,0.0,0.0,85,0.00,,,0.00,Wunderground v.1.15,2013-02-03 08:40:00,
2013-02-03 02:46:00,3.8,0.3,29.98,WSW,258,0.0,0.0,85,0.00,,,0.00,Wunderground v.1.15,2013-02-03 08:46:00,
2013-02-03 02:52:00,4.2,0.7,29.98,WSW,246,0.0,0.0,85,0.00,,,0.00,Wunderground v.1.15,2013-02-03 08:52:00,
2013-02-03 02:57:00,4.4,0.9,29.98,WSW,257,0.0,0.0,85,0.00,,,0.00,Wunderground v.1.15,2013-02-03 08:57:00,
2013-02-03 03:03:00,4.6,1.1,29.97,WSW,250,0.0,0.0,85,0.00,,,0.00,Wunderground v.1.15,2013-02-03 09:03:00,
2013-02-03 03:09:00,4.7,1.2,29.97,WSW,245,0.0,0.0,85,0.00,,,0.00,Wunderground v.1.15,2013-02-03 09:09:00,
2013-02-03 03:14:00,4.8,1.3,29.97,WSW,240,0.0,0.0,85,0.00,,,0.00,Wunderground v.1.15,2013-02-03 09:14:00,
2013-02-03 03:20:00,5.0,1.5,29.97,West,261,0.0,0.0,85,0.00,,,0.00,Wunderground v.1.15,2013-02-03 09:20:00,
2013-02-03 03:26:00,5.2,1.7,29.97,West,269,0.0,0.0,85,0.00,,,0.00,Wunderground v.1.15,2013-02-03 09:26:00,
2013-02-03 03:31:00,5.4,1.9,29.96,WSW,253,0.0,0.0,85,0.00,,,0.00,Wunderground v.1.15,2013-02-03 09:31:00,
2013-02-03 03:37:00,5.6,2.1,29.96,West,265,0.0,0.0,85,0.00,,,0.00,Wunderground v.1.15,2013-02-03 09:37:00,
2013-02-03 03:42:00,5.7,2.2,29.95,WSW,252,0.0,0.0,85,0.00,,,0.00,Wunderground v.1.15,2013-02-03 09:42:00,
2013-02-03 03:48:00,5.9,2.4,29.95,WSW,250,0.0,0.0,85,0.00,,,0.00,Wunderground v.1.15,2013-02-03 09:48:00,
2013-02-03 03:54:00,6.0,2.5,29.95,West,259,0.0,0.0,85,0.00,,,0.00,Wunderground v.1.15,2013-02-03 09:54:00,
2013-02-03 03:59:00,6.1,2.6,29.95,WSW,257,0.0,0.0,85,0.00,,,0.00,Wunderground v.1.15,2013-02-03 09:59:00,
2013-02-03 04:05:00,6.3,2.8,29.96,WSW,250,0.0,0.0,85,0.00,,,0.00,Wunderground v.1.15,2013-02-03 10:05:00,
2013-02-03 04:11:00,6.5,3.0,29.96,WSW,253,0.0,0.0,85,0.00,,,0.00,Wunderground v.1.15,2013-02-03 10:11:00,
2013-02-03 04:16:00,6.7,3.1,29.96,West,271,0.0,0.0,85,0.00,,,0.00,Wunderground v.1.15,2013-02-03 10:16:00,
2013-02-03 04:22:00,6.7,3.1,29.96,WSW,254,0.0,0.0,85,0.00,,,0.00,Wunderground v.1.15,2013-02-03 10:22:00,
2013-02-03 04:28:00,6.8,3.2,29.96,WNW,283,0.0,0.0,85,0.00,,,0.00,Wunderground v.1.15,2013-02-03 10:28:00,
2013-02-03 04:33:00,6.9,3.3,29.96,West,273,0.0,0.0,85,0.00,,,0.00,Wunderground v.1.15,2013-02-03 10:33:00,
2013-02-03 04:39:00,6.9,3.3,29.97,WNW,283,0.0,0.0,85,0.00,,,0.00,Wunderground v.1.15,2013-02-03 10:39:00,
2013-02-03 04:44:00,6.9,3.3,29.97,West,276,0.0,0.0,85,0.00,,,0.00,Wunderground v.1.15,2013-02-03 10:44:00,
2013-02-03 04:50:00,7.0,3.4,29.96,WNW,287,0.0,0.0,85,0.00,,,0.00,Wunderground v.1.15,2013-02-03 10:50:00,
2013-02-03 04:56:00,7.1,3.3,29.97,West,277,0.0,0.0,84,0.00,,,0.00,Wunderground v.1.15,2013-02-03 10:56:00,
2013-02-03 05:01:00,7.1,3.3,29.97,WNW,294,0.0,0.0,84,0.00,,,0.00,Wunderground v.1.15,2013-02-03 11:01:00,
2013-02-03 05:07:00,7.1,3.3,29.96,WNW,287,0.0,0.0,84,0.00,,,0.00,Wunderground v.1.15,2013-02-03 11:07:00,
2013-02-03 05:13:00,7.1,3.3,29.96,WNW,283,0.0,0.0,84,0.00,,,0.00,Wunderground v.1.15,2013-02-03 11:13:00,
2013-02-03 05:19:00,7.0,3.2,29.96,WNW,282,0.0,0.0,84,0.00,,,0.00,Wunderground v.1.15,2013-02-03 11:19:00,
2013-02-03 05:25:00,7.1,3.3,29.97,West,280,0.0,0.0,84,0.00,,,0.00,Wunderground v.1.15,2013-02-03 11:25:00,
2013-02-03 05:31:00,7.1,3.3,29.97,WNW,290,0.0,0.0,84,0.00,,,0.00,Wunderground v.1.15,2013-02-03 11:31:00,
2013-02-03 05:37:00,7.1,3.3,29.97,WNW,291,0.0,0.0,84,0.00,,,0.00,Wunderground v.1.15,2013-02-03 11:37:00,
2013-02-03 05:42:00,7.2,3.4,29.97,WNW,282,0.0,0.0,84,0.00,,,0.00,Wunderground v.1.15,2013-02-03 11:42:00,
2013-02-03 05:47:00,7.2,3.1,29.97,West,271,0.0,0.0,83,0.00,,,0.00,Wunderground v.1.15,2013-02-03 11:47:00,
2013-02-03 05:53:00,7.2,3.1,29.97,WNW,298,0.0,0.0,83,0.00,,,0.00,Wunderground v.1.15,2013-02-03 11:53:00,
2013-02-03 05:58:00,7.2,3.1,29.98,WNW,289,0.0,0.0,83,0.00,,,0.00,Wunderground v.1.15,2013-02-03 11:58:00,
2013-02-03 06:04:00,7.3,3.0,29.98,WNW,288,0.0,0.0,82,0.00,,,0.00,Wunderground v.1.15,2013-02-03 12:04:00,
2013-02-03 06:09:00,7.3,3.0,29.98,NW,306,0.0,0.0,82,0.00,,,0.00,Wunderground v.1.15,2013-02-03 12:09:00,
2013-02-03 06:15:00,7.3,3.0,29.98,NW,323,0.0,0.0,82,0.00,,,0.00,Wunderground v.1.15,2013-02-03 12:15:00,
2013-02-03 06:21:00,7.2,2.6,29.98,WNW,285,0.0,0.0,81,0.00,,,0.00,Wunderground v.1.15,2013-02-03 12:21:00,
2013-02-03 06:26:00,7.2,2.9,29.98,West,278,0.0,0.0,82,0.00,,,0.00,Wunderground v.1.15,2013-02-03 12:26:00,
2013-02-03 06:32:00,7.2,2.6,29.98,WNW,284,0.0,0.0,81,0.00,,,0.00,Wunderground v.1.15,2013-02-03 12:32:00,
2013-02-03 06:37:00,7.2,2.6,29.98,NW,304,0.0,0.0,81,0.00,,,0.00,Wunderground v.1.15,2013-02-03 12:37:00,
2013-02-03 06:43:00,7.1,2.5,29.98,West,271,0.0,0.0,81,0.00,,,0.00,Wunderground v.1.15,2013-02-03 12:43:00,
2013-02-03 06:49:00,7.2,2.6,29.99,West,279,0.0,0.0,81,0.00,,,0.00,Wunderground v.1.15,2013-02-03 12:49:00,
2013-02-03 06:54:00,7.2,2.6,29.99,WNW,284,0.0,0.0,81,0.00,,,0.00,Wunderground v.1.15,2013-02-03 12:54:00,
2013-02-03 07:00:00,7.1,2.5,29.99,NW,325,0.0,0.0,81,0.00,,,0.00,Wunderground v.1.15,2013-02-03 13:00:00,
2013-02-03 07:05:00,7.1,2.5,29.99,WNW,294,0.0,0.0,81,0.00,,,0.00,Wunderground v.1.15,2013-02-03 13:05:00,
2013-02-03 07:11:00,7.1,2.5,29.99,WNW,284,0.0,0.0,81,0.00,,,0.00,Wunderground v.1.15,2013-02-03 13:11:00,
2013-02-03 07:16:00,7.0,2.4,29.99,NW,315,0.0,0.0,81,0.00,,,0.00,Wunderground v.1.15,2013-02-03 13:16:00,
2013-02-03 07:22:00,6.8,2.2,30.00,West,277,0.0,0.0,81,0.00,,,0.00,Wunderground v.1.15,2013-02-03 13:22:00,
2013-02-03 07:28:00,6.6,1.7,30.00,West,281,0.0,0.0,80,0.00,,,0.00,Wunderground v.1.15,2013-02-03 13:28:00,
2013-02-03 07:34:00,6.5,1.6,30.00,West,279,0.0,0.0,80,0.00,,,0.00,Wunderground v.1.15,2013-02-03 13:34:00,
2013-02-03 07:39:00,6.4,1.5,30.00,WNW,285,0.0,0.0,80,0.00,,,0.00,Wunderground v.1.15,2013-02-03 13:39:00,
2013-02-03 07:45:00,6.4,1.5,30.00,WNW,290,0.0,0.0,80,0.00,,,0.00,Wunderground v.1.15,2013-02-03 13:45:00,
2013-02-03 07:51:00,6.3,1.4,30.00,West,270,0.0,0.0,80,0.00,,,0.00,Wunderground v.1.15,2013-02-03 13:51:00,
2013-02-03 07:57:00,6.4,1.8,30.00,NW,304,0.0,0.0,81,0.00,,,0.00,Wunderground v.1.15,2013-02-03 13:57:00,
2013-02-03 08:03:00,6.5,1.9,30.01,WNW,282,0.0,0.0,81,0.00,,,0.00,Wunderground v.1.15,2013-02-03 14:03:00,
2013-02-03 08:09:00,6.6,2.0,30.01,West,263,0.0,0.0,81,0.00,,,0.00,Wunderground v.1.15,2013-02-03 14:09:00,
2013-02-03 08:15:00,6.7,2.1,30.01,West,275,0.0,0.0,81,0.00,,,0.00,Wunderground v.1.15,2013-02-03 14:15:00,
2013-02-03 08:20:00,6.9,2.3,30.01,West,276,0.0,0.0,81,0.00,,,0.00,Wunderground v.1.15,2013-02-03 14:20:00,
2013-02-03 08:26:00,7.0,2.4,30.00,WNW,287,0.0,0.0,81,0.00,,,0.00,Wunderground v.1.15,2013-02-03 14:26:00,
2013-02-03 08:32:00,7.1,2.2,30.00,WNW,296,0.0,0.0,80,0.00,,,0.00,Wunderground v.1.15,2013-02-03 14:32:00,
2013-02-03 08:38:00,7.2,2.3,30.00,West,275,0.0,0.0,80,0.00,,,0.00,Wunderground v.1.15,2013-02-03 14:38:00,
2013-02-03 08:44:00,7.2,2.3,30.01,NW,305,0.0,0.0,80,0.00,,,0.00,Wunderground v.1.15,2013-02-03 14:44:00,
2013-02-03 08:50:00,7.3,2.4,30.00,NW,323,0.0,0.0,80,0.00,,,0.00,Wunderground v.1.15,2013-02-03 14:50:00,
2013-02-03 08:56:00,7.4,2.3,30.00,NW,317,0.0,0.0,79,0.00,,,0.00,Wunderground v.1.15,2013-02-03 14:56:00,
2013-02-03 09:01:00,7.5,2.3,30.00,WNW,296,0.0,0.0,79,0.00,,,0.00,Wunderground v.1.15,2013-02-03 15:01:00,
2013-02-03 09:07:00,7.6,2.4,30.00,NNW,343,0.0,0.0,79,0.00,,,0.00,Wunderground v.1.15,2013-02-03 15:07:00,
2013-02-03 09:12:00,7.7,2.5,30.00,WNW,292,0.0,0.0,79,0.00,,,0.00,Wunderground v.1.15,2013-02-03 15:12:00,
2013-02-03 09:18:00,7.8,2.4,30.00,West,275,0.0,0.0,78,0.00,,,0.00,Wunderground v.1.15,2013-02-03 15:18:00,
2013-02-03 09:23:00,7.7,2.3,30.01,NW,304,0.0,0.0,78,0.00,,,0.00,Wunderground v.1.15,2013-02-03 15:23:00,
2013-02-03 09:29:00,7.8,2.4,30.01,NNW,329,0.0,0.0,78,0.00,,,0.00,Wunderground v.1.15,2013-02-03 15:29:00,
2013-02-03 09:35:00,7.8,2.4,30.01,WNW,291,0.0,0.0,78,0.00,,,0.00,Wunderground v.1.15,2013-02-03 15:35:00,
2013-02-03 09:41:00,8.0,2.3,30.02,West,277,0.0,0.0,77,0.00,,,0.00,Wunderground v.1.15,2013-02-03 15:41:00,
2013-02-03 09:46:00,7.8,2.1,30.01,West,280,0.0,0.0,77,0.00,,,0.00,Wunderground v.1.15,2013-02-03 15:46:00,
2013-02-03 09:52:00,7.9,2.2,30.02,WNW,282,0.0,0.0,77,0.00,,,0.00,Wunderground v.1.15,2013-02-03 15:52:00,
2013-02-03 09:58:00,8.2,2.5,30.02,West,277,0.0,0.0,77,0.00,,,0.00,Wunderground v.1.15,2013-02-03 15:58:00,
2013-02-03 10:04:00,8.1,2.4,30.02,WNW,284,0.0,0.0,77,0.00,,,0.00,Wunderground v.1.15,2013-02-03 16:04:00,
2013-02-03 10:09:00,8.2,2.5,30.02,West,280,0.0,0.0,77,0.00,,,0.00,Wunderground v.1.15,2013-02-03 16:09:00,
2013-02-03 10:15:00,8.3,2.6,30.02,West,261,0.0,0.0,77,0.00,,,0.00,Wunderground v.1.15,2013-02-03 16:15:00,
2013-02-03 10:20:00,8.5,2.8,30.02,West,271,0.0,0.0,77,0.00,,,0.00,Wunderground v.1.15,2013-02-03 16:20:00,
2013-02-03 10:26:00,8.6,2.6,30.02,NNW,328,0.0,0.0,76,0.00,,,0.00,Wunderground v.1.15,2013-02-03 16:26:00,
2013-02-03 10:32:00,8.9,2.9,30.02,NNW,327,0.0,0.0,76,0.00,,,0.00,Wunderground v.1.15,2013-02-03 16:32:00,
2013-02-03 10:38:00,8.9,2.6,30.02,NW,306,0.0,0.0,75,0.00,,,0.00,Wunderground v.1.15,2013-02-03 16:38:00,
2013-02-03 10:44:00,9.6,3.0,30.02,WNW,297,0.0,0.0,74,0.00,,,0.00,Wunderground v.1.15,2013-02-03 16:44:00,
2013-02-03 10:49:00,9.8,3.2,30.01,West,274,0.0,0.0,74,0.00,,,0.00,Wunderground v.1.15,2013-02-03 16:49:00,
2013-02-03 10:55:00,10.0,3.4,30.02,WNW,299,0.0,0.0,74,0.00,,,0.00,Wunderground v.1.15,2013-02-03 16:55:00,
2013-02-03 11:01:00,10.2,3.6,30.02,West,269,0.0,0.0,74,0.00,,,0.00,Wunderground v.1.15,2013-02-03 17:01:00,
2013-02-03 11:07:00,10.2,3.6,30.01,WNW,292,0.0,0.0,74,0.00,,,0.00,Wunderground v.1.15,2013-02-03 17:07:00,
2013-02-03 11:12:00,10.2,3.6,30.01,West,276,0.0,0.0,74,0.00,,,0.00,Wunderground v.1.15,2013-02-03 17:12:00,
2013-02-03 11:18:00,10.5,3.6,30.01,NNW,341,0.0,0.0,73,0.00,,,0.00,Wunderground v.1.15,2013-02-03 17:18:00,
2013-02-03 11:24:00,11.1,3.8,30.00,WNW,284,0.0,0.0,72,0.00,,,0.00,Wunderground v.1.15,2013-02-03 17:24:00,
2013-02-03 11:30:00,10.9,3.6,30.00,WNW,283,0.0,0.0,72,0.00,,,0.00,Wunderground v.1.15,2013-02-03 17:30:00,
2013-02-03 11:35:00,10.6,3.6,30.00,West,271,0.0,0.0,73,0.00,,,0.00,Wunderground v.1.15,2013-02-03 17:35:00,
2013-02-03 11:41:00,10.7,3.7,30.00,West,279,0.0,0.0,73,0.00,,,0.00,Wunderground v.1.15,2013-02-03 17:41:00,
2013-02-03 11:47:00,11.0,3.7,30.00,West,268,0.0,0.0,72,0.00,,,0.00,Wunderground v.1.15,2013-02-03 17:47:00,
2013-02-03 11:53:00,11.1,4.1,30.00,WSW,254,0.0,0.0,73,0.00,,,0.00,Wunderground v.1.15,2013-02-03 17:53:00,
2013-02-03 11:59:00,11.4,4.1,29.99,WNW,300,0.0,0.0,72,0.00,,,0.00,Wunderground v.1.15,2013-02-03 17:59:00,
2013-02-03 12:04:00,11.4,3.8,29.99,WSW,258,0.0,0.0,71,0.00,,,0.00,Wunderground v.1.15,2013-02-03 18:04:00,
2013-02-03 12:10:00,11.3,3.7,29.99,WNW,290,0.0,0.0,71,0.00,,,0.00,Wunderground v.1.15,2013-02-03 18:10:00,
2013-02-03 12:16:00,11.5,3.6,29.99,West,275,0.0,0.0,70,0.00,,,0.00,Wunderground v.1.15,2013-02-03 18:16:00,
2013-02-03 12:22:00,11.5,3.9,29.99,West,276,0.0,0.0,71,0.00,,,0.00,Wunderground v.1.15,2013-02-03 18:22:00,
2013-02-03 12:28:00,11.7,3.8,29.99,West,278,0.0,0.0,70,0.00,,,0.00,Wunderground v.1.15,2013-02-03 18:28:00,
2013-02-03 12:33:00,12.0,3.8,29.99,West,275,0.0,0.0,69,0.00,,,0.00,Wunderground v.1.15,2013-02-03 18:33:00,
2013-02-03 12:39:00,12.4,3.8,29.99,West,277,0.0,0.0,68,0.00,,,0.00,Wunderground v.1.15,2013-02-03 18:39:00,
2013-02-03 12:45:00,12.3,3.7,29.99,WNW,287,0.0,0.0,68,0.00,,,0.00,Wunderground v.1.15,2013-02-03 18:45:00,
2013-02-03 12:51:00,12.5,3.9,30.00,West,275,0.0,0.0,68,0.00,,,0.00,Wunderground v.1.15,2013-02-03 18:51:00,
2013-02-03 12:57:00,12.7,3.8,29.99,WNW,284,0.0,0.0,67,0.00,,,0.00,Wunderground v.1.15,2013-02-03 18:57:00,
2013-02-03 13:02:00,12.8,3.9,30.00,WSW,258,0.0,0.0,67,0.00,,,0.00,Wunderground v.1.15,2013-02-03 19:02:00,
2013-02-03 13:08:00,12.8,3.6,29.99,West,279,0.0,0.0,66,0.00,,,0.00,Wunderground v.1.15,2013-02-03 19:08:00,
2013-02-03 13:14:00,12.7,3.5,30.00,WSW,253,0.0,0.0,66,0.00,,,0.00,Wunderground v.1.15,2013-02-03 19:14:00,
2013-02-03 13:20:00,12.8,3.6,30.00,West,263,0.0,0.0,66,0.00,,,0.00,Wunderground v.1.15,2013-02-03 19:20:00,
2013-02-03 13:25:00,12.9,3.7,30.00,West,266,0.0,0.0,66,0.00,,,0.00,Wunderground v.1.15,2013-02-03 19:25:00,
2013-02-03 13:31:00,12.8,3.6,30.00,West,270,0.0,0.0,66,0.00,,,0.00,Wunderground v.1.15,2013-02-03 19:31:00,
2013-02-03 13:37:00,12.9,3.3,29.99,West,265,0.0,0.0,65,0.00,,,0.00,Wunderground v.1.15,2013-02-03 19:37:00,
2013-02-03 13:42:00,13.1,3.5,29.99,WNW,294,0.0,0.0,65,0.00,,,0.00,Wunderground v.1.15,2013-02-03 19:42:00,
2013-02-03 13:48:00,13.2,3.6,29.99,WSW,256,0.0,0.0,65,0.00,,,0.00,Wunderground v.1.15,2013-02-03 19:48:00,
2013-02-03 13:53:00,13.3,4.1,29.99,West,264,0.0,0.0,66,0.00,,,0.00,Wunderground v.1.15,2013-02-03 19:53:00,
2013-02-03 13:59:00,13.2,4.0,29.99,West,267,0.0,0.0,66,0.00,,,0.00,Wunderground v.1.15,2013-02-03 19:59:00,
2013-02-03 14:05:00,13.0,3.4,29.99,West,269,0.0,0.0,65,0.00,,,0.00,Wunderground v.1.15,2013-02-03 20:05:00,
2013-02-03 14:11:00,13.4,3.8,29.99,West,279,0.0,0.0,65,0.00,,,0.00,Wunderground v.1.15,2013-02-03 20:11:00,
2013-02-03 14:17:00,13.3,3.7,29.99,WNW,287,0.0,0.0,65,0.00,,,0.00,Wunderground v.1.15,2013-02-03 20:17:00,
2013-02-03 14:23:00,13.4,3.8,29.99,West,274,0.0,0.0,65,0.00,,,0.00,Wunderground v.1.15,2013-02-03 20:23:00,
2013-02-03 14:29:00,13.4,3.8,29.99,West,259,0.0,0.0,65,0.00,,,0.00,Wunderground v.1.15,2013-02-03 20:29:00,
2013-02-03 14:35:00,13.4,3.8,30.00,West,279,0.0,0.0,65,0.00,,,0.00,Wunderground v.1.15,2013-02-03 20:35:00,
2013-02-03 14:41:00,13.1,3.5,30.00,West,268,0.0,0.0,65,0.00,,,0.00,Wunderground v.1.15,2013-02-03 20:41:00,
2013-02-03 14:46:00,12.6,3.1,30.00,West,271,0.0,0.0,65,0.00,,,0.00,Wunderground v.1.15,2013-02-03 20:46:00,
2013-02-03 14:52:00,13.0,3.4,30.00,West,276,0.0,0.0,65,0.00,,,0.00,Wunderground v.1.15,2013-02-03 20:52:00,
2013-02-03 14:58:00,13.8,3.9,30.00,West,272,0.0,0.0,64,0.00,,,0.00,Wunderground v.1.15,2013-02-03 20:58:00,
2013-02-03 15:04:00,13.8,3.5,30.00,WSW,258,0.0,0.0,63,0.00,,,0.00,Wunderground v.1.15,2013-02-03 21:04:00,
2013-02-03 15:10:00,13.7,3.4,30.00,West,280,0.0,0.0,63,0.00,,,0.00,Wunderground v.1.15,2013-02-03 21:10:00,
2013-02-03 15:15:00,13.7,3.4,30.01,West,280,0.0,0.0,63,0.00,,,0.00,Wunderground v.1.15,2013-02-03 21:15:00,
2013-02-03 15:21:00,13.8,3.2,30.02,WNW,288,0.0,0.0,62,0.00,,,0.00,Wunderground v.1.15,2013-02-03 21:21:00,
2013-02-03 15:27:00,13.7,3.1,30.02,West,273,0.0,0.0,62,0.00,,,0.00,Wunderground v.1.15,2013-02-03 21:27:00,
2013-02-03 15:32:00,13.7,3.1,30.02,West,279,0.0,0.0,62,0.00,,,0.00,Wunderground v.1.15,2013-02-03 21:32:00,
2013-02-03 15:38:00,13.7,3.1,30.02,West,275,0.0,0.0,62,0.00,,,0.00,Wunderground v.1.15,2013-02-03 21:38:00,
2013-02-03 15:44:00,13.7,3.1,30.02,West,260,0.0,0.0,62,0.00,,,0.00,Wunderground v.1.15,2013-02-03 21:44:00,
2013-02-03 15:49:00,13.8,3.2,30.01,West,281,0.0,0.0,62,0.00,,,0.00,Wunderground v.1.15,2013-02-03 21:49:00,
2013-02-03 15:55:00,13.7,3.1,30.01,WSW,250,0.0,0.0,62,0.00,,,0.00,Wunderground v.1.15,2013-02-03 21:55:00,
2013-02-03 16:01:00,13.6,3.0,30.01,West,259,0.0,0.0,62,0.00,,,0.00,Wunderground v.1.15,2013-02-03 22:01:00,
2013-02-03 16:07:00,13.6,2.6,30.02,West,280,0.0,0.0,61,0.00,,,0.00,Wunderground v.1.15,2013-02-03 22:07:00,
2013-02-03 16:13:00,13.7,2.7,30.01,West,278,0.0,0.0,61,0.00,,,0.00,Wunderground v.1.15,2013-02-03 22:13:00,
2013-02-03 16:19:00,13.4,2.4,30.01,WNW,293,0.0,0.0,61,0.00,,,0.00,Wunderground v.1.15,2013-02-03 22:19:00,
2013-02-03 16:25:00,13.2,2.3,30.01,West,269,0.0,0.0,61,0.00,,,0.00,Wunderground v.1.15,2013-02-03 22:25:00,
2013-02-03 16:31:00,12.9,2.0,30.01,WNW,283,0.0,0.0,61,0.00,,,0.00,Wunderground v.1.15,2013-02-03 22:31:00,
2013-02-03 16:37:00,12.5,1.9,30.01,West,276,0.0,0.0,62,0.00,,,0.00,Wunderground v.1.15,2013-02-03 22:37:00,
2013-02-03 16:43:00,12.3,1.7,30.01,West,261,0.0,0.0,62,0.00,,,0.00,Wunderground v.1.15,2013-02-03 22:43:00,
2013-02-03 16:49:00,12.0,1.8,30.01,West,267,0.0,0.0,63,0.00,,,0.00,Wunderground v.1.15,2013-02-03 22:49:00,
2013-02-03 16:55:00,11.6,1.4,30.01,West,265,0.0,0.0,63,0.00,,,0.00,Wunderground v.1.15,2013-02-03 22:55:00,
2013-02-03 17:01:00,11.1,1.3,30.01,WNW,284,0.0,0.0,64,0.00,,,0.00,Wunderground v.1.15,2013-02-03 23:01:00,
2013-02-03 17:07:00,11.1,1.3,30.02,West,275,0.0,0.0,64,0.00,,,0.00,Wunderground v.1.15,2013-02-03 23:07:00,
2013-02-03 17:12:00,10.7,0.9,30.02,WNW,285,0.0,0.0,64,0.00,,,0.00,Wunderground v.1.15,2013-02-03 23:12:00,
2013-02-03 17:18:00,10.1,0.3,30.02,WNW,287,0.0,0.0,64,0.00,,,0.00,Wunderground v.1.15,2013-02-03 23:18:00,
2013-02-03 17:24:00,10.3,0.9,30.02,WNW,288,0.0,0.0,65,0.00,,,0.00,Wunderground v.1.15,2013-02-03 23:24:00,
2013-02-03 17:30:00,10.0,0.6,30.01,West,259,0.0,0.0,65,0.00,,,0.00,Wunderground v.1.15,2013-02-03 23:30:00,
2013-02-03 17:35:00,10.2,0.8,30.01,West,273,0.0,0.0,65,0.00,,,0.00,Wunderground v.1.15,2013-02-03 23:35:00,
2013-02-03 17:41:00,10.2,1.1,30.02,WSW,257,0.0,0.0,66,0.00,,,0.00,Wunderground v.1.15,2013-02-03 23:41:00,
2013-02-03 17:47:00,10.3,1.2,30.02,West,265,0.0,0.0,66,0.00,,,0.00,Wunderground v.1.15,2013-02-03 23:47:00,
2013-02-03 17:53:00,10.2,1.1,30.02,WSW,252,0.0,0.0,66,0.00,,,0.00,Wunderground v.1.15,2013-02-03 23:53:00,
2013-02-03 17:59:00,10.1,1.0,30.02,West,267,0.0,0.0,66,0.00,,,0.00,Wunderground v.1.15,2013-02-03 23:59:00,
2013-02-03 18:05:00,9.9,1.1,30.02,West,271,0.0,0.0,67,0.00,,,0.00,Wunderground v.1.15,2013-02-04 00:05:00,
2013-02-03 18:10:00,10.0,1.2,30.02,WSW,257,0.0,0.0,67,0.00,,,0.00,Wunderground v.1.15,2013-02-04 00:10:00,
2013-02-03 18:16:00,9.6,0.8,30.02,WSW,246,0.0,0.0,67,0.00,,,0.00,Wunderground v.1.15,2013-02-04 00:16:00,
2013-02-03 18:22:00,9.2,0.5,30.03,WSW,250,0.0,0.0,67,0.00,,,0.00,Wunderground v.1.15,2013-02-04 00:22:00,
2013-02-03 18:28:00,8.9,0.5,30.03,WSW,249,0.0,0.0,68,0.00,,,0.00,Wunderground v.1.15,2013-02-04 00:28:00,
2013-02-03 18:33:00,8.6,0.5,30.03,WSW,255,0.0,0.0,69,0.00,,,0.00,Wunderground v.1.15,2013-02-04 00:33:00,
2013-02-03 18:39:00,8.2,0.1,30.03,WSW,257,0.0,0.0,69,0.00,,,0.00,Wunderground v.1.15,2013-02-04 00:39:00,
2013-02-03 18:45:00,8.2,0.4,30.03,SW,229,0.0,0.0,70,0.00,,,0.00,Wunderground v.1.15,2013-02-04 00:45:00,
2013-02-03 18:50:00,8.5,0.7,30.03,West,279,0.0,0.0,70,0.00,,,0.00,Wunderground v.1.15,2013-02-04 00:50:00,
2013-02-03 18:56:00,8.6,0.8,30.03,WNW,290,0.0,0.0,70,0.00,,,0.00,Wunderground v.1.15,2013-02-04 00:56:00,
2013-02-03 19:01:00,9.0,1.2,30.03,West,278,0.0,0.0,70,0.00,,,0.00,Wunderground v.1.15,2013-02-04 01:01:00,
2013-02-03 19:06:00,9.5,1.7,30.03,West,270,0.0,0.0,70,0.00,,,0.00,Wunderground v.1.15,2013-02-04 01:06:00,
2013-02-03 19:12:00,9.8,1.7,30.03,West,271,0.0,0.0,69,0.00,,,0.00,Wunderground v.1.15,2013-02-04 01:12:00,
2013-02-03 19:18:00,9.9,1.8,30.03,NNW,328,0.0,0.0,69,0.00,,,0.00,Wunderground v.1.15,2013-02-04 01:18:00,
2013-02-03 19:23:00,9.9,1.8,30.03,WNW,282,0.0,0.0,69,0.00,,,0.00,Wunderground v.1.15,2013-02-04 01:23:00,
2013-02-03 19:29:00,10.0,1.9,30.03,WNW,292,0.0,0.0,69,0.00,,,0.00,Wunderground v.1.15,2013-02-04 01:29:00,
2013-02-03 19:35:00,10.1,1.6,30.03,West,273,0.0,0.0,68,0.00,,,0.00,Wunderground v.1.15,2013-02-04 01:35:00,
2013-02-03 19:41:00,10.1,1.9,30.03,WSW,252,0.0,0.0,69,0.00,,,0.00,Wunderground v.1.15,2013-02-04 01:41:00,
2013-02-03 19:46:00,9.8,1.7,30.03,West,259,0.0,0.0,69,0.00,,,0.00,Wunderground v.1.15,2013-02-04 01:46:00,
2013-02-03 19:52:00,9.5,1.7,30.03,West,274,0.0,0.0,70,0.00,,,0.00,Wunderground v.1.15,2013-02-04 01:52:00,
2013-02-03 19:58:00,9.6,1.8,30.03,WNW,299,0.0,0.0,70,0.00,,,0.00,Wunderground v.1.15,2013-02-04 01:58:00,
2013-02-03 20:03:00,9.8,1.7,30.03,West,279,0.0,0.0,69,0.00,,,0.00,Wunderground v.1.15,2013-02-04 02:03:00,
2013-02-03 20:09:00,9.9,1.8,30.03,West,273,0.0,0.0,69,0.00,,,0.00,Wunderground v.1.15,2013-02-04 02:09:00,
2013-02-03 20:15:00,10.0,1.9,30.03,West,267,0.0,0.0,69,0.00,,,0.00,Wunderground v.1.15,2013-02-04 02:15:00,
2013-02-03 20:21:00,9.2,1.4,30.04,SW,227,0.0,0.0,70,0.00,,,0.00,Wunderground v.1.15,2013-02-04 02:21:00,
2013-02-03 20:27:00,8.2,0.7,30.03,WSW,248,0.0,0.0,71,0.00,,,0.00,Wunderground v.1.15,2013-02-04 02:27:00,
2013-02-03 20:33:00,7.9,0.4,30.04,WSW,248,0.0,0.0,71,0.00,,,0.00,Wunderground v.1.15,2013-02-04 02:33:00,
2013-02-03 20:38:00,7.9,0.7,30.04,WSW,247,0.0,0.0,72,0.00,,,0.00,Wunderground v.1.15,2013-02-04 02:38:00,
2013-02-03 20:44:00,7.8,0.6,30.04,SW,236,0.0,0.0,72,0.00,,,0.00,Wunderground v.1.15,2013-02-04 02:44:00,
2013-02-03 20:49:00,7.6,0.5,30.04,WSW,246,0.0,0.0,72,0.00,,,0.00,Wunderground v.1.15,2013-02-04 02:49:00,
2013-02-03 20:55:00,7.4,0.6,30.04,WSW,250,0.0,0.0,73,0.00,,,0.00,Wunderground v.1.15,2013-02-04 02:55:00,
2013-02-03 21:01:00,7.4,0.6,30.04,West,259,0.0,0.0,73,0.00,,,0.00,Wunderground v.1.15,2013-02-04 03:01:00,
2013-02-03 21:07:00,7.5,0.7,30.04,WSW,246,0.0,0.0,73,0.00,,,0.00,Wunderground v.1.15,2013-02-04 03:07:00,
2013-02-03 21:13:00,7.5,0.7,30.04,SW,236,0.0,0.0,73,0.00,,,0.00,Wunderground v.1.15,2013-02-04 03:13:00,
2013-02-03 21:18:00,7.4,0.6,30.04,West,259,0.0,0.0,73,0.00,,,0.00,Wunderground v.1.15,2013-02-04 03:18:00,
2013-02-03 21:24:00,6.9,0.1,30.05,WSW,250,0.0,0.0,73,0.00,,,0.00,Wunderground v.1.15,2013-02-04 03:24:00,
2013-02-03 21:29:00,6.8,0.0,30.05,WSW,247,0.0,0.0,73,0.00,,,0.00,Wunderground v.1.15,2013-02-04 03:29:00,
2013-02-03 21:35:00,6.4,-0.7,30.04,WSW,247,0.0,0.0,72,0.00,,,0.00,Wunderground v.1.15,2013-02-04 03:35:00,
2013-02-03 21:41:00,5.6,-1.2,30.04,WSW,247,0.0,0.0,73,0.00,,,0.00,Wunderground v.1.15,2013-02-04 03:41:00,
2013-02-03 21:46:00,5.2,-1.0,30.04,WSW,247,0.0,0.0,75,0.00,,,0.00,Wunderground v.1.15,2013-02-04 03:46:00,
2013-02-03 21:52:00,4.9,-1.0,30.04,WSW,247,0.0,0.0,76,0.00,,,0.00,Wunderground v.1.15,2013-02-04 03:52:00,
2013-02-03 21:57:00,5.0,-0.6,30.04,WSW,247,0.0,0.0,77,0.00,,,0.00,Wunderground v.1.15,2013-02-04 03:57:00,
2013-02-03 22:03:00,4.9,-0.7,30.04,WSW,247,0.0,0.0,77,0.00,,,0.00,Wunderground v.1.15,2013-02-04 04:03:00,
2013-02-03 22:08:00,4.7,-0.9,30.04,WSW,247,0.0,0.0,77,0.00,,,0.00,Wunderground v.1.15,2013-02-04 04:08:00,
2013-02-03 22:14:00,4.7,-0.7,30.04,WSW,247,0.0,0.0,78,0.00,,,0.00,Wunderground v.1.15,2013-02-04 04:14:00,
2013-02-03 22:20:00,4.7,-0.7,30.05,WSW,247,0.0,0.0,78,0.00,,,0.00,Wunderground v.1.15,2013-02-04 04:20:00,
2013-02-03 22:25:00,4.5,-0.8,30.05,WSW,247,0.0,0.0,78,0.00,,,0.00,Wunderground v.1.15,2013-02-04 04:25:00,
2013-02-03 22:31:00,4.0,-1.6,30.04,WSW,247,0.0,0.0,77,0.00,,,0.00,Wunderground v.1.15,2013-02-04 04:31:00,
2013-02-03 22:37:00,3.2,-2.1,30.05,WSW,247,0.0,0.0,78,0.00,,,0.00,Wunderground v.1.15,2013-02-04 04:37:00,
2013-02-03 22:42:00,2.8,-2.5,30.04,WSW,247,0.0,0.0,78,0.00,,,0.00,Wunderground v.1.15,2013-02-04 04:42:00,
2013-02-03 22:48:00,2.6,-2.4,30.04,WSW,247,0.0,0.0,79,0.00,,,0.00,Wunderground v.1.15,2013-02-04 04:48:00,
2013-02-03 22:54:00,2.6,-2.2,30.04,WSW,247,0.0,0.0,80,0.00,,,0.00,Wunderground v.1.15,2013-02-04 04:54:00,
2013-02-03 22:59:00,2.6,-2.2,30.04,WSW,247,0.0,0.0,80,0.00,,,0.00,Wunderground v.1.15,2013-02-04 04:59:00,
2013-02-03 23:02:00,2.6,-2.2,30.04,WSW,247,0.0,0.0,80,0.00,,,0.00,Wunderground v.1.15,2013-02-04 05:02:00,
2013-02-03 23:04:00,2.7,-2.1,30.04,WSW,247,0.0,0.0,80,0.00,,,0.00,Wunderground v.1.15,2013-02-04 05:04:00,
2013-02-03 23:06:00,2.7,-1.8,30.05,WSW,247,0.0,0.0,81,0.00,,,0.00,Wunderground v.1.15,2013-02-04 05:06:00,
2013-02-03 23:08:00,2.8,-1.7,30.05,WSW,247,0.0,0.0,81,0.00,,,0.00,Wunderground v.1.15,2013-02-04 05:08:00,
2013-02-03 23:13:00,3.1,-1.4,30.05,WSW,247,0.0,0.0,81,0.00,,,0.00,Wunderground v.1.15,2013-02-04 05:13:00,
2013-02-03 23:19:00,3.3,-1.2,30.05,WSW,247,0.0,0.0,81,0.00,,,0.00,Wunderground v.1.15,2013-02-04 05:19:00,
2013-02-03 23:25:00,3.4,-1.1,30.05,WSW,247,0.0,0.0,81,0.00,,,0.00,Wunderground v.1.15,2013-02-04 05:25:00,
2013-02-03 23:31:00,3.2,-1.3,30.05,WSW,247,0.0,0.0,81,0.00,,,0.00,Wunderground v.1.15,2013-02-04 05:31:00,
2013-02-03 23:37:00,3.0,-1.5,30.05,West,268,0.0,0.0,81,0.00,,,0.00,Wunderground v.1.15,2013-02-04 05:37:00,
2013-02-03 23:42:00,3.0,-1.5,30.05,West,268,0.0,0.0,81,0.00,,,0.00,Wunderground v.1.15,2013-02-04 05:42:00,
2013-02-03 23:48:00,3.1,-1.2,30.05,West,268,0.0,0.0,82,0.00,,,0.00,Wunderground v.1.15,2013-02-04 05:48:00,
2013-02-03 23:54:00,3.0,-1.5,30.05,West,268,0.0,0.0,81,0.00,,,0.00,Wunderground v.1.15,2013-02-04 05:54:00,
2013-02-03 23:59:00,2.8,-1.7,30.05,West,268,0.0,0.0,81,0.00,,,0.00,Wunderground v.1.15,2013-02-04 05:59:00,